sensor_id;sensor_type;location;lat;lon;timestamp;P1;durP1;ratioP1;P2;durP2;ratioP2
77978;SDS011;67169;50.268;8.694;2023-08-24T00:01:34;0.70;;;0.43;;
77978;SDS011;67169;50.268;8.694;2023-08-24T00:04:01;0.80;;;0.80;;
77978;SDS011;67169;50.268;8.694;2023-08-24T00:06:29;0.50;;;0.50;;
77978;SDS011;67169;50.268;8.694;2023-08-24T00:08:55;0.95;;;0.60;;
77978;SDS011;67169;50.268;8.694;2023-08-24T00:11:22;0.88;;;0.88;;
77978;SDS011;67169;50.268;8.694;2023-08-24T00:13:48;0.85;;;0.85;;
77978;SDS011;67169;50.268;8.694;2023-08-24T00:16:16;1.95;;;0.70;;
77978;SDS011;67169;50.268;8.694;2023-08-24T00:18:43;0.98;;;0.60;;
77978;SDS011;67169;50.268;8.694;2023-08-24T00:21:10;0.55;;;0.50;;
77978;SDS011;67169;50.268;8.694;2023-08-24T00:23:39;0.77;;;0.68;;
77978;SDS011;67169;50.268;8.694;2023-08-24T00:26:06;0.90;;;0.88;;
77978;SDS011;67169;50.268;8.694;2023-08-24T00:28:33;0.47;;;0.47;;
77978;SDS011;67169;50.268;8.694;2023-08-24T00:31:00;2.28;;;0.80;;
77978;SDS011;67169;50.268;8.694;2023-08-24T00:33:26;1.85;;;0.80;;
77978;SDS011;67169;50.268;8.694;2023-08-24T00:35:58;0.75;;;0.45;;
77978;SDS011;67169;50.268;8.694;2023-08-24T00:38:25;0.80;;;0.50;;
77978;SDS011;67169;50.268;8.694;2023-08-24T00:40:54;0.82;;;0.60;;
77978;SDS011;67169;50.268;8.694;2023-08-24T00:43:21;0.55;;;0.40;;
77978;SDS011;67169;50.268;8.694;2023-08-24T00:45:49;0.40;;;0.40;;
77978;SDS011;67169;50.268;8.694;2023-08-24T00:48:16;0.85;;;0.57;;
77978;SDS011;67169;50.268;8.694;2023-08-24T00:50:42;1.13;;;0.90;;
77978;SDS011;67169;50.268;8.694;2023-08-24T00:53:09;0.70;;;0.70;;
77978;SDS011;67169;50.268;8.694;2023-08-24T00:55:37;0.65;;;0.65;;
77978;SDS011;67169;50.268;8.694;2023-08-24T00:58:05;0.90;;;0.50;;
77978;SDS011;67169;50.268;8.694;2023-08-24T01:00:33;0.50;;;0.50;;
77978;SDS011;67169;50.268;8.694;2023-08-24T01:02:59;0.77;;;0.63;;
77978;SDS011;67169;50.268;8.694;2023-08-24T01:05:26;1.52;;;1.00;;
77978;SDS011;67169;50.268;8.694;2023-08-24T01:07:53;1.67;;;0.70;;
77978;SDS011;67169;50.268;8.694;2023-08-24T01:10:19;0.52;;;0.40;;
77978;SDS011;67169;50.268;8.694;2023-08-24T01:12:50;0.32;;;0.32;;
77978;SDS011;67169;50.268;8.694;2023-08-24T01:15:26;0.82;;;0.70;;
77978;SDS011;67169;50.268;8.694;2023-08-24T01:18:00;0.63;;;0.45;;
77978;SDS011;67169;50.268;8.694;2023-08-24T01:20:31;0.65;;;0.65;;
77978;SDS011;67169;50.268;8.694;2023-08-24T01:23:03;0.43;;;0.40;;
77978;SDS011;67169;50.268;8.694;2023-08-24T01:25:36;0.52;;;0.50;;
77978;SDS011;67169;50.268;8.694;2023-08-24T01:28:13;0.43;;;0.32;;
77978;SDS011;67169;50.268;8.694;2023-08-24T01:30:42;0.55;;;0.52;;
77978;SDS011;67169;50.268;8.694;2023-08-24T01:33:09;0.60;;;0.50;;
77978;SDS011;67169;50.268;8.694;2023-08-24T01:35:37;0.75;;;0.70;;
77978;SDS011;67169;50.268;8.694;2023-08-24T01:38:04;0.60;;;0.50;;
77978;SDS011;67169;50.268;8.694;2023-08-24T01:40:33;0.50;;;0.50;;
77978;SDS011;67169;50.268;8.694;2023-08-24T01:43:07;0.73;;;0.70;;
77978;SDS011;67169;50.268;8.694;2023-08-24T01:45:37;1.08;;;0.93;;
77978;SDS011;67169;50.268;8.694;2023-08-24T01:48:07;0.80;;;0.60;;
77978;SDS011;67169;50.268;8.694;2023-08-24T01:50:36;0.88;;;0.68;;
77978;SDS011;67169;50.268;8.694;2023-08-24T01:53:03;1.08;;;0.80;;
77978;SDS011;67169;50.268;8.694;2023-08-24T01:55:30;0.70;;;0.68;;
77978;SDS011;67169;50.268;8.694;2023-08-24T01:57:57;0.75;;;0.75;;
77978;SDS011;67169;50.268;8.694;2023-08-24T02:00:24;0.60;;;0.52;;
77978;SDS011;67169;50.268;8.694;2023-08-24T02:02:52;0.63;;;0.60;;
77978;SDS011;67169;50.268;8.694;2023-08-24T02:05:18;1.02;;;0.90;;
77978;SDS011;67169;50.268;8.694;2023-08-24T02:07:45;1.15;;;0.90;;
77978;SDS011;67169;50.268;8.694;2023-08-24T02:10:11;0.75;;;0.50;;
77978;SDS011;67169;50.268;8.694;2023-08-24T02:12:38;1.50;;;0.70;;
77978;SDS011;67169;50.268;8.694;2023-08-24T02:15:05;1.75;;;0.80;;
77978;SDS011;67169;50.268;8.694;2023-08-24T02:17:32;0.63;;;0.63;;
77978;SDS011;67169;50.268;8.694;2023-08-24T02:20:00;0.63;;;0.63;;
77978;SDS011;67169;50.268;8.694;2023-08-24T02:22:28;0.70;;;0.70;;
77978;SDS011;67169;50.268;8.694;2023-08-24T02:24:55;1.42;;;1.15;;
77978;SDS011;67169;50.268;8.694;2023-08-24T02:27:21;1.70;;;0.93;;
77978;SDS011;67169;50.268;8.694;2023-08-24T02:29:48;1.00;;;0.90;;
77978;SDS011;67169;50.268;8.694;2023-08-24T02:32:14;1.92;;;0.70;;
77978;SDS011;67169;50.268;8.694;2023-08-24T02:34:41;1.08;;;0.95;;
77978;SDS011;67169;50.268;8.694;2023-08-24T02:37:09;0.80;;;0.50;;
77978;SDS011;67169;50.268;8.694;2023-08-24T02:39:35;1.35;;;0.88;;
77978;SDS011;67169;50.268;8.694;2023-08-24T02:42:02;1.00;;;0.50;;
77978;SDS011;67169;50.268;8.694;2023-08-24T02:44:28;1.13;;;0.75;;
77978;SDS011;67169;50.268;8.694;2023-08-24T02:46:56;0.82;;;0.63;;
77978;SDS011;67169;50.268;8.694;2023-08-24T02:49:23;2.53;;;0.98;;
77978;SDS011;67169;50.268;8.694;2023-08-24T02:51:50;0.40;;;0.40;;
77978;SDS011;67169;50.268;8.694;2023-08-24T02:54:18;1.30;;;0.95;;
77978;SDS011;67169;50.268;8.694;2023-08-24T02:56:45;2.88;;;1.38;;
77978;SDS011;67169;50.268;8.694;2023-08-24T02:59:11;1.42;;;0.90;;
77978;SDS011;67169;50.268;8.694;2023-08-24T03:01:38;1.20;;;0.85;;
77978;SDS011;67169;50.268;8.694;2023-08-24T03:04:06;0.85;;;0.75;;
77978;SDS011;67169;50.268;8.694;2023-08-24T03:06:33;0.73;;;0.73;;
77978;SDS011;67169;50.268;8.694;2023-08-24T03:09:00;0.57;;;0.55;;
77978;SDS011;67169;50.268;8.694;2023-08-24T03:11:30;1.42;;;0.77;;
77978;SDS011;67169;50.268;8.694;2023-08-24T03:13:57;2.03;;;0.80;;
77978;SDS011;67169;50.268;8.694;2023-08-24T03:16:23;1.55;;;1.25;;
77978;SDS011;67169;50.268;8.694;2023-08-24T03:18:50;0.95;;;0.90;;
77978;SDS011;67169;50.268;8.694;2023-08-24T03:21:16;0.63;;;0.63;;
77978;SDS011;67169;50.268;8.694;2023-08-24T03:23:43;1.33;;;0.68;;
77978;SDS011;67169;50.268;8.694;2023-08-24T03:26:09;0.77;;;0.77;;
77978;SDS011;67169;50.268;8.694;2023-08-24T03:28:37;0.90;;;0.70;;
77978;SDS011;67169;50.268;8.694;2023-08-24T03:31:06;1.48;;;1.08;;
77978;SDS011;67169;50.268;8.694;2023-08-24T03:33:32;0.80;;;0.80;;
77978;SDS011;67169;50.268;8.694;2023-08-24T03:35:59;1.08;;;0.85;;
77978;SDS011;67169;50.268;8.694;2023-08-24T03:38:26;1.30;;;0.98;;
77978;SDS011;67169;50.268;8.694;2023-08-24T03:40:59;1.63;;;1.08;;
77978;SDS011;67169;50.268;8.694;2023-08-24T03:43:26;1.42;;;0.93;;
77978;SDS011;67169;50.268;8.694;2023-08-24T03:45:54;0.73;;;0.73;;
77978;SDS011;67169;50.268;8.694;2023-08-24T03:48:20;1.20;;;1.10;;
77978;SDS011;67169;50.268;8.694;2023-08-24T03:50:47;1.35;;;1.20;;
77978;SDS011;67169;50.268;8.694;2023-08-24T03:53:13;1.80;;;1.08;;
77978;SDS011;67169;50.268;8.694;2023-08-24T03:55:40;0.73;;;0.73;;
77978;SDS011;67169;50.268;8.694;2023-08-24T03:58:06;1.05;;;0.63;;
77978;SDS011;67169;50.268;8.694;2023-08-24T04:00:33;1.25;;;1.15;;
77978;SDS011;67169;50.268;8.694;2023-08-24T04:03:01;0.82;;;0.70;;
77978;SDS011;67169;50.268;8.694;2023-08-24T04:05:27;1.20;;;0.75;;
77978;SDS011;67169;50.268;8.694;2023-08-24T04:07:54;1.77;;;0.98;;
77978;SDS011;67169;50.268;8.694;2023-08-24T04:10:20;1.30;;;1.20;;
77978;SDS011;67169;50.268;8.694;2023-08-24T04:12:47;1.23;;;0.90;;
77978;SDS011;67169;50.268;8.694;2023-08-24T04:15:13;1.00;;;0.82;;
77978;SDS011;67169;50.268;8.694;2023-08-24T04:17:40;0.90;;;0.80;;
77978;SDS011;67169;50.268;8.694;2023-08-24T04:20:08;3.75;;;0.98;;
77978;SDS011;67169;50.268;8.694;2023-08-24T04:22:36;1.20;;;0.95;;
77978;SDS011;67169;50.268;8.694;2023-08-24T04:25:03;0.98;;;0.82;;
77978;SDS011;67169;50.268;8.694;2023-08-24T04:27:31;1.23;;;1.00;;
77978;SDS011;67169;50.268;8.694;2023-08-24T04:29:58;0.88;;;0.77;;
77978;SDS011;67169;50.268;8.694;2023-08-24T04:32:25;1.38;;;0.98;;
77978;SDS011;67169;50.268;8.694;2023-08-24T04:37:20;1.92;;;1.40;;
77978;SDS011;67169;50.268;8.694;2023-08-24T04:39:47;2.25;;;1.17;;
77978;SDS011;67169;50.268;8.694;2023-08-24T04:42:14;2.20;;;0.95;;
77978;SDS011;67169;50.268;8.694;2023-08-24T04:44:40;0.95;;;0.85;;
77978;SDS011;67169;50.268;8.694;2023-08-24T04:47:07;2.03;;;1.20;;
77978;SDS011;67169;50.268;8.694;2023-08-24T04:49:33;1.42;;;1.05;;
77978;SDS011;67169;50.268;8.694;2023-08-24T04:52:02;1.67;;;1.25;;
77978;SDS011;67169;50.268;8.694;2023-08-24T04:54:30;1.10;;;1.00;;
77978;SDS011;67169;50.268;8.694;2023-08-24T04:56:58;0.98;;;0.75;;
77978;SDS011;67169;50.268;8.694;2023-08-24T04:59:25;2.25;;;1.35;;
77978;SDS011;67169;50.268;8.694;2023-08-24T05:01:51;1.08;;;0.98;;
77978;SDS011;67169;50.268;8.694;2023-08-24T05:04:18;1.35;;;0.88;;
77978;SDS011;67169;50.268;8.694;2023-08-24T05:06:44;3.13;;;1.25;;
77978;SDS011;67169;50.268;8.694;2023-08-24T05:09:11;1.50;;;1.40;;
77978;SDS011;67169;50.268;8.694;2023-08-24T05:11:39;1.63;;;1.52;;
77978;SDS011;67169;50.268;8.694;2023-08-24T05:14:05;1.58;;;1.23;;
77978;SDS011;67169;50.268;8.694;2023-08-24T05:16:39;1.45;;;0.98;;
77978;SDS011;67169;50.268;8.694;2023-08-24T05:19:05;2.10;;;1.10;;
77978;SDS011;67169;50.268;8.694;2023-08-24T05:21:33;0.85;;;0.77;;
77978;SDS011;67169;50.268;8.694;2023-08-24T05:24:07;0.90;;;0.75;;
77978;SDS011;67169;50.268;8.694;2023-08-24T05:26:33;0.80;;;0.80;;
77978;SDS011;67169;50.268;8.694;2023-08-24T05:29:01;0.80;;;0.80;;
77978;SDS011;67169;50.268;8.694;2023-08-24T05:31:28;0.95;;;0.80;;
77978;SDS011;67169;50.268;8.694;2023-08-24T05:33:54;0.60;;;0.60;;
77978;SDS011;67169;50.268;8.694;2023-08-24T05:36:21;0.77;;;0.77;;
77978;SDS011;67169;50.268;8.694;2023-08-24T05:38:47;0.70;;;0.70;;
77978;SDS011;67169;50.268;8.694;2023-08-24T05:41:14;0.57;;;0.57;;
77978;SDS011;67169;50.268;8.694;2023-08-24T05:43:41;0.98;;;0.80;;
77978;SDS011;67169;50.268;8.694;2023-08-24T05:46:09;0.60;;;0.60;;
77978;SDS011;67169;50.268;8.694;2023-08-24T05:48:36;1.58;;;0.82;;
77978;SDS011;67169;50.268;8.694;2023-08-24T05:51:02;1.10;;;0.75;;
77978;SDS011;67169;50.268;8.694;2023-08-24T05:53:31;0.90;;;0.65;;
77978;SDS011;67169;50.268;8.694;2023-08-24T05:55:58;0.57;;;0.57;;
77978;SDS011;67169;50.268;8.694;2023-08-24T05:58:25;1.13;;;0.82;;
77978;SDS011;67169;50.268;8.694;2023-08-24T06:00:55;1.98;;;0.90;;
77978;SDS011;67169;50.268;8.694;2023-08-24T06:03:24;1.52;;;1.10;;
77978;SDS011;67169;50.268;8.694;2023-08-24T06:05:51;1.10;;;1.00;;
77978;SDS011;67169;50.268;8.694;2023-08-24T06:08:18;1.65;;;0.80;;
77978;SDS011;67169;50.268;8.694;2023-08-24T06:10:44;0.85;;;0.80;;
77978;SDS011;67169;50.268;8.694;2023-08-24T06:13:11;1.20;;;1.08;;
77978;SDS011;67169;50.268;8.694;2023-08-24T06:15:38;1.08;;;0.98;;
77978;SDS011;67169;50.268;8.694;2023-08-24T06:18:05;1.95;;;1.02;;
77978;SDS011;67169;50.268;8.694;2023-08-24T06:20:33;0.77;;;0.70;;
77978;SDS011;67169;50.268;8.694;2023-08-24T06:23:00;2.45;;;0.70;;
77978;SDS011;67169;50.268;8.694;2023-08-24T06:25:27;1.17;;;1.08;;
77978;SDS011;67169;50.268;8.694;2023-08-24T06:27:54;2.80;;;1.08;;
77978;SDS011;67169;50.268;8.694;2023-08-24T06:30:20;1.10;;;1.05;;
77978;SDS011;67169;50.268;8.694;2023-08-24T06:32:47;1.15;;;0.85;;
77978;SDS011;67169;50.268;8.694;2023-08-24T06:35:13;1.10;;;1.00;;
77978;SDS011;67169;50.268;8.694;2023-08-24T06:37:42;1.35;;;1.10;;
77978;SDS011;67169;50.268;8.694;2023-08-24T06:40:09;0.98;;;0.73;;
77978;SDS011;67169;50.268;8.694;2023-08-24T06:42:36;1.77;;;1.20;;
77978;SDS011;67169;50.268;8.694;2023-08-24T06:45:03;1.17;;;1.08;;
77978;SDS011;67169;50.268;8.694;2023-08-24T06:47:29;1.98;;;1.15;;
77978;SDS011;67169;50.268;8.694;2023-08-24T06:49:56;2.85;;;1.70;;
77978;SDS011;67169;50.268;8.694;2023-08-24T06:52:22;1.30;;;1.20;;
77978;SDS011;67169;50.268;8.694;2023-08-24T06:54:51;1.42;;;1.33;;
77978;SDS011;67169;50.268;8.694;2023-08-24T06:57:21;2.15;;;1.70;;
77978;SDS011;67169;50.268;8.694;2023-08-24T06:59:47;2.55;;;1.55;;
77978;SDS011;67169;50.268;8.694;2023-08-24T07:02:14;1.45;;;1.30;;
77978;SDS011;67169;50.268;8.694;2023-08-24T07:04:42;1.70;;;1.48;;
77978;SDS011;67169;50.268;8.694;2023-08-24T07:07:09;1.90;;;1.23;;
77978;SDS011;67169;50.268;8.694;2023-08-24T07:09:36;3.58;;;2.10;;
77978;SDS011;67169;50.268;8.694;2023-08-24T07:12:04;2.85;;;1.65;;
77978;SDS011;67169;50.268;8.694;2023-08-24T07:14:32;1.42;;;1.30;;
77978;SDS011;67169;50.268;8.694;2023-08-24T07:16:58;2.30;;;1.73;;
77978;SDS011;67169;50.268;8.694;2023-08-24T07:19:25;1.70;;;1.60;;
77978;SDS011;67169;50.268;8.694;2023-08-24T07:21:52;1.77;;;1.52;;
77978;SDS011;67169;50.268;8.694;2023-08-24T07:24:18;1.90;;;1.77;;
77978;SDS011;67169;50.268;8.694;2023-08-24T07:26:45;2.22;;;2.00;;
77978;SDS011;67169;50.268;8.694;2023-08-24T07:29:14;2.88;;;1.65;;
77978;SDS011;67169;50.268;8.694;2023-08-24T07:31:40;3.83;;;1.95;;
77978;SDS011;67169;50.268;8.694;2023-08-24T07:34:07;1.95;;;1.42;;
77978;SDS011;67169;50.268;8.694;2023-08-24T07:36:33;2.20;;;1.60;;
77978;SDS011;67169;50.268;8.694;2023-08-24T07:39:00;2.10;;;1.77;;
77978;SDS011;67169;50.268;8.694;2023-08-24T07:41:27;2.17;;;1.15;;
77978;SDS011;67169;50.268;8.694;2023-08-24T07:43:54;3.05;;;1.60;;
77978;SDS011;67169;50.268;8.694;2023-08-24T07:46:22;3.15;;;1.52;;
77978;SDS011;67169;50.268;8.694;2023-08-24T07:48:48;3.30;;;2.03;;
77978;SDS011;67169;50.268;8.694;2023-08-24T07:51:15;2.00;;;1.90;;
77978;SDS011;67169;50.268;8.694;2023-08-24T07:53:41;2.08;;;1.88;;
77978;SDS011;67169;50.268;8.694;2023-08-24T07:56:08;2.28;;;1.42;;
77978;SDS011;67169;50.268;8.694;2023-08-24T07:58:37;3.50;;;2.35;;
77978;SDS011;67169;50.268;8.694;2023-08-24T08:01:04;2.03;;;1.80;;
77978;SDS011;67169;50.268;8.694;2023-08-24T08:03:32;2.67;;;2.17;;
77978;SDS011;67169;50.268;8.694;2023-08-24T08:06:00;1.90;;;1.70;;
77978;SDS011;67169;50.268;8.694;2023-08-24T08:08:27;2.10;;;1.90;;
77978;SDS011;67169;50.268;8.694;2023-08-24T08:11:00;2.38;;;1.83;;
77978;SDS011;67169;50.268;8.694;2023-08-24T08:13:28;2.63;;;2.20;;
77978;SDS011;67169;50.268;8.694;2023-08-24T08:18:26;2.15;;;1.95;;
77978;SDS011;67169;50.268;8.694;2023-08-24T08:20:54;2.88;;;1.40;;
77978;SDS011;67169;50.268;8.694;2023-08-24T08:23:20;2.85;;;1.83;;
77978;SDS011;67169;50.268;8.694;2023-08-24T08:25:47;1.77;;;1.45;;
77978;SDS011;67169;50.268;8.694;2023-08-24T08:28:13;2.30;;;1.77;;
77978;SDS011;67169;50.268;8.694;2023-08-24T08:30:40;1.40;;;1.30;;
77978;SDS011;67169;50.268;8.694;2023-08-24T08:33:07;1.67;;;1.58;;
77978;SDS011;67169;50.268;8.694;2023-08-24T08:35:33;1.80;;;1.70;;
77978;SDS011;67169;50.268;8.694;2023-08-24T08:38:01;2.05;;;1.67;;
77978;SDS011;67169;50.268;8.694;2023-08-24T08:40:29;1.70;;;1.23;;
77978;SDS011;67169;50.268;8.694;2023-08-24T08:42:57;1.80;;;1.52;;
77978;SDS011;67169;50.268;8.694;2023-08-24T08:45:24;1.65;;;1.35;;
77978;SDS011;67169;50.268;8.694;2023-08-24T08:47:52;1.52;;;1.42;;
77978;SDS011;67169;50.268;8.694;2023-08-24T08:50:22;1.60;;;1.20;;
77978;SDS011;67169;50.268;8.694;2023-08-24T08:52:48;2.22;;;1.50;;
77978;SDS011;67169;50.268;8.694;2023-08-24T08:55:17;3.88;;;1.45;;
77978;SDS011;67169;50.268;8.694;2023-08-24T08:57:44;2.00;;;1.50;;
77978;SDS011;67169;50.268;8.694;2023-08-24T09:00:14;2.35;;;1.30;;
77978;SDS011;67169;50.268;8.694;2023-08-24T09:02:42;1.50;;;1.20;;
77978;SDS011;67169;50.268;8.694;2023-08-24T09:05:10;2.90;;;1.63;;
77978;SDS011;67169;50.268;8.694;2023-08-24T09:07:37;2.58;;;1.45;;
77978;SDS011;67169;50.268;8.694;2023-08-24T09:10:05;1.55;;;1.30;;
77978;SDS011;67169;50.268;8.694;2023-08-24T09:12:34;1.70;;;1.05;;
77978;SDS011;67169;50.268;8.694;2023-08-24T09:15:02;1.42;;;1.33;;
77978;SDS011;67169;50.268;8.694;2023-08-24T09:17:31;0.77;;;0.77;;
77978;SDS011;67169;50.268;8.694;2023-08-24T09:19:58;1.15;;;1.02;;
77978;SDS011;67169;50.268;8.694;2023-08-24T09:22:25;2.17;;;1.08;;
77978;SDS011;67169;50.268;8.694;2023-08-24T09:24:52;1.92;;;1.25;;
77978;SDS011;67169;50.268;8.694;2023-08-24T09:27:20;1.50;;;1.00;;
77978;SDS011;67169;50.268;8.694;2023-08-24T09:29:49;1.92;;;1.20;;
77978;SDS011;67169;50.268;8.694;2023-08-24T09:32:21;1.20;;;1.08;;
77978;SDS011;67169;50.268;8.694;2023-08-24T09:34:48;2.65;;;1.10;;
77978;SDS011;67169;50.268;8.694;2023-08-24T09:37:15;2.28;;;0.90;;
77978;SDS011;67169;50.268;8.694;2023-08-24T09:39:42;1.45;;;0.85;;
77978;SDS011;67169;50.268;8.694;2023-08-24T09:42:09;0.82;;;0.60;;
77978;SDS011;67169;50.268;8.694;2023-08-24T09:44:35;1.17;;;0.75;;
77978;SDS011;67169;50.268;8.694;2023-08-24T09:47:06;0.77;;;0.77;;
77978;SDS011;67169;50.268;8.694;2023-08-24T09:49:35;1.00;;;0.90;;
77978;SDS011;67169;50.268;8.694;2023-08-24T09:52:02;0.95;;;0.70;;
77978;SDS011;67169;50.268;8.694;2023-08-24T09:54:32;0.75;;;0.70;;
77978;SDS011;67169;50.268;8.694;2023-08-24T09:57:04;1.00;;;0.90;;
77978;SDS011;67169;50.268;8.694;2023-08-24T09:59:32;1.42;;;0.82;;
77978;SDS011;67169;50.268;8.694;2023-08-24T10:02:01;1.35;;;1.00;;
77978;SDS011;67169;50.268;8.694;2023-08-24T10:04:33;0.70;;;0.50;;
77978;SDS011;67169;50.268;8.694;2023-08-24T10:07:02;1.40;;;0.80;;
77978;SDS011;67169;50.268;8.694;2023-08-24T10:09:35;0.90;;;0.77;;
77978;SDS011;67169;50.268;8.694;2023-08-24T10:12:06;0.77;;;0.75;;
77978;SDS011;67169;50.268;8.694;2023-08-24T10:14:36;1.92;;;0.82;;
77978;SDS011;67169;50.268;8.694;2023-08-24T10:17:08;0.95;;;0.70;;
77978;SDS011;67169;50.268;8.694;2023-08-24T10:19:37;0.90;;;0.80;;
77978;SDS011;67169;50.268;8.694;2023-08-24T10:22:04;0.93;;;0.90;;
77978;SDS011;67169;50.268;8.694;2023-08-24T10:24:33;1.00;;;0.77;;
77978;SDS011;67169;50.268;8.694;2023-08-24T10:27:01;1.40;;;0.70;;
77978;SDS011;67169;50.268;8.694;2023-08-24T10:29:29;0.75;;;0.75;;
77978;SDS011;67169;50.268;8.694;2023-08-24T10:31:56;1.45;;;0.90;;
77978;SDS011;67169;50.268;8.694;2023-08-24T10:34:23;1.42;;;1.00;;
77978;SDS011;67169;50.268;8.694;2023-08-24T10:36:51;1.00;;;0.90;;
77978;SDS011;67169;50.268;8.694;2023-08-24T10:39:18;0.90;;;0.60;;
77978;SDS011;67169;50.268;8.694;2023-08-24T10:41:53;0.75;;;0.75;;
77978;SDS011;67169;50.268;8.694;2023-08-24T10:44:20;0.70;;;0.65;;
77978;SDS011;67169;50.268;8.694;2023-08-24T10:47:08;0.82;;;0.80;;
77978;SDS011;67169;50.268;8.694;2023-08-24T10:49:38;2.42;;;0.80;;
77978;SDS011;67169;50.268;8.694;2023-08-24T10:52:19;1.75;;;0.88;;
77978;SDS011;67169;50.268;8.694;2023-08-24T10:54:47;2.08;;;0.93;;
77978;SDS011;67169;50.268;8.694;2023-08-24T10:57:18;1.00;;;0.90;;
77978;SDS011;67169;50.268;8.694;2023-08-24T10:59:57;1.15;;;1.05;;
77978;SDS011;67169;50.268;8.694;2023-08-24T11:02:24;0.93;;;0.80;;
77978;SDS011;67169;50.268;8.694;2023-08-24T11:05:04;1.60;;;0.80;;
77978;SDS011;67169;50.268;8.694;2023-08-24T11:07:33;1.00;;;0.80;;
77978;SDS011;67169;50.268;8.694;2023-08-24T11:10:00;1.13;;;0.63;;
77978;SDS011;67169;50.268;8.694;2023-08-24T11:15:37;0.70;;;0.70;;
77978;SDS011;67169;50.268;8.694;2023-08-24T11:18:12;0.98;;;0.90;;
77978;SDS011;67169;50.268;8.694;2023-08-24T11:20:42;1.13;;;0.82;;
77978;SDS011;67169;50.268;8.694;2023-08-24T11:23:11;1.30;;;0.60;;
77978;SDS011;67169;50.268;8.694;2023-08-24T11:25:38;0.93;;;0.82;;
77978;SDS011;67169;50.268;8.694;2023-08-24T11:28:07;1.38;;;1.13;;
77978;SDS011;67169;50.268;8.694;2023-08-24T11:30:34;1.80;;;1.10;;
77978;SDS011;67169;50.268;8.694;2023-08-24T11:33:01;1.73;;;1.00;;
77978;SDS011;67169;50.268;8.694;2023-08-24T11:35:28;0.95;;;0.95;;
77978;SDS011;67169;50.268;8.694;2023-08-24T11:37:58;1.98;;;1.05;;
77978;SDS011;67169;50.268;8.694;2023-08-24T11:40:29;1.65;;;0.80;;
77978;SDS011;67169;50.268;8.694;2023-08-24T11:42:55;0.85;;;0.85;;
77978;SDS011;67169;50.268;8.694;2023-08-24T11:45:22;1.17;;;0.90;;
77978;SDS011;67169;50.268;8.694;2023-08-24T11:47:49;1.45;;;0.90;;
77978;SDS011;67169;50.268;8.694;2023-08-24T11:50:16;1.08;;;0.95;;
77978;SDS011;67169;50.268;8.694;2023-08-24T11:55:11;1.88;;;1.00;;
77978;SDS011;67169;50.268;8.694;2023-08-24T12:00:06;1.10;;;1.00;;
77978;SDS011;67169;50.268;8.694;2023-08-24T12:02:34;1.25;;;0.90;;
77978;SDS011;67169;50.268;8.694;2023-08-24T12:05:01;1.90;;;0.95;;
77978;SDS011;67169;50.268;8.694;2023-08-24T12:07:31;1.38;;;0.90;;
77978;SDS011;67169;50.268;8.694;2023-08-24T12:09:59;1.88;;;1.00;;
77978;SDS011;67169;50.268;8.694;2023-08-24T12:12:28;1.30;;;1.20;;
77978;SDS011;67169;50.268;8.694;2023-08-24T12:14:58;4.43;;;1.05;;
77978;SDS011;67169;50.268;8.694;2023-08-24T12:17:24;1.40;;;1.00;;
77978;SDS011;67169;50.268;8.694;2023-08-24T12:19:56;2.38;;;1.10;;
77978;SDS011;67169;50.268;8.694;2023-08-24T12:22:24;1.40;;;1.00;;
77978;SDS011;67169;50.268;8.694;2023-08-24T12:24:51;1.38;;;1.08;;
77978;SDS011;67169;50.268;8.694;2023-08-24T12:27:17;1.33;;;1.23;;
77978;SDS011;67169;50.268;8.694;2023-08-24T12:29:45;1.10;;;0.80;;
77978;SDS011;67169;50.268;8.694;2023-08-24T12:32:13;1.17;;;1.00;;
77978;SDS011;67169;50.268;8.694;2023-08-24T12:34:41;1.27;;;1.17;;
77978;SDS011;67169;50.268;8.694;2023-08-24T12:39:35;1.63;;;1.38;;
77978;SDS011;67169;50.268;8.694;2023-08-24T12:42:02;1.80;;;1.27;;
77978;SDS011;67169;50.268;8.694;2023-08-24T12:44:29;1.25;;;0.90;;
77978;SDS011;67169;50.268;8.694;2023-08-24T12:46:59;1.15;;;1.05;;
77978;SDS011;67169;50.268;8.694;2023-08-24T12:51:53;1.80;;;1.08;;
77978;SDS011;67169;50.268;8.694;2023-08-24T12:54:20;1.27;;;1.08;;
77978;SDS011;67169;50.268;8.694;2023-08-24T12:59:13;1.10;;;1.10;;
77978;SDS011;67169;50.268;8.694;2023-08-24T13:01:40;1.30;;;1.20;;
77978;SDS011;67169;50.268;8.694;2023-08-24T13:04:07;0.82;;;0.82;;
77978;SDS011;67169;50.268;8.694;2023-08-24T13:06:35;1.30;;;0.88;;
77978;SDS011;67169;50.268;8.694;2023-08-24T13:09:01;1.40;;;1.30;;
77978;SDS011;67169;50.268;8.694;2023-08-24T13:11:30;1.35;;;0.88;;
77978;SDS011;67169;50.268;8.694;2023-08-24T13:13:56;1.33;;;1.10;;
77978;SDS011;67169;50.268;8.694;2023-08-24T13:16:23;1.65;;;1.40;;
77978;SDS011;67169;50.268;8.694;2023-08-24T13:18:49;1.23;;;1.00;;
77978;SDS011;67169;50.268;8.694;2023-08-24T13:21:16;1.27;;;1.15;;
77978;SDS011;67169;50.268;8.694;2023-08-24T13:26:18;0.90;;;0.75;;
77978;SDS011;67169;50.268;8.694;2023-08-24T13:28:45;1.02;;;0.85;;
77978;SDS011;67169;50.268;8.694;2023-08-24T13:31:12;1.58;;;1.00;;
77978;SDS011;67169;50.268;8.694;2023-08-24T13:33:39;1.40;;;1.25;;
77978;SDS011;67169;50.268;8.694;2023-08-24T13:36:05;1.52;;;1.15;;
77978;SDS011;67169;50.268;8.694;2023-08-24T13:38:32;1.33;;;1.00;;
77978;SDS011;67169;50.268;8.694;2023-08-24T13:41:00;3.78;;;1.55;;
77978;SDS011;67169;50.268;8.694;2023-08-24T13:43:26;0.90;;;0.90;;
77978;SDS011;67169;50.268;8.694;2023-08-24T13:45:53;1.27;;;1.02;;
77978;SDS011;67169;50.268;8.694;2023-08-24T13:48:20;1.23;;;1.13;;
77978;SDS011;67169;50.268;8.694;2023-08-24T13:50:49;1.13;;;1.10;;
77978;SDS011;67169;50.268;8.694;2023-08-24T13:53:17;1.30;;;1.20;;
77978;SDS011;67169;50.268;8.694;2023-08-24T13:55:43;1.52;;;1.25;;
77978;SDS011;67169;50.268;8.694;2023-08-24T13:58:11;1.45;;;1.00;;
77978;SDS011;67169;50.268;8.694;2023-08-24T14:00:38;1.95;;;1.67;;
77978;SDS011;67169;50.268;8.694;2023-08-24T14:03:07;2.85;;;1.27;;
77978;SDS011;67169;50.268;8.694;2023-08-24T14:05:40;1.55;;;1.20;;
77978;SDS011;67169;50.268;8.694;2023-08-24T14:08:07;1.98;;;1.20;;
77978;SDS011;67169;50.268;8.694;2023-08-24T14:10:33;1.38;;;1.05;;
77978;SDS011;67169;50.268;8.694;2023-08-24T14:13:00;2.05;;;1.38;;
77978;SDS011;67169;50.268;8.694;2023-08-24T14:15:28;1.42;;;1.33;;
77978;SDS011;67169;50.268;8.694;2023-08-24T14:17:55;1.10;;;1.00;;
77978;SDS011;67169;50.268;8.694;2023-08-24T14:20:21;1.85;;;1.10;;
77978;SDS011;67169;50.268;8.694;2023-08-24T14:22:48;1.65;;;1.23;;
77978;SDS011;67169;50.268;8.694;2023-08-24T14:25:14;2.95;;;1.48;;
77978;SDS011;67169;50.268;8.694;2023-08-24T14:27:42;1.30;;;1.20;;
77978;SDS011;67169;50.268;8.694;2023-08-24T14:30:09;1.75;;;1.20;;
77978;SDS011;67169;50.268;8.694;2023-08-24T14:32:40;1.73;;;1.17;;
77978;SDS011;67169;50.268;8.694;2023-08-24T14:35:09;1.48;;;1.20;;
77978;SDS011;67169;50.268;8.694;2023-08-24T14:37:38;1.20;;;1.10;;
77978;SDS011;67169;50.268;8.694;2023-08-24T14:40:06;1.63;;;1.30;;
77978;SDS011;67169;50.268;8.694;2023-08-24T14:42:33;1.23;;;1.00;;
77978;SDS011;67169;50.268;8.694;2023-08-24T14:45:00;1.65;;;1.13;;
77978;SDS011;67169;50.268;8.694;2023-08-24T14:47:26;2.85;;;1.05;;
77978;SDS011;67169;50.268;8.694;2023-08-24T14:49:54;1.48;;;1.17;;
77978;SDS011;67169;50.268;8.694;2023-08-24T14:52:21;1.50;;;1.20;;
77978;SDS011;67169;50.268;8.694;2023-08-24T14:54:48;1.35;;;1.20;;
77978;SDS011;67169;50.268;8.694;2023-08-24T14:57:14;1.27;;;1.02;;
77978;SDS011;67169;50.268;8.694;2023-08-24T14:59:41;1.58;;;1.10;;
77978;SDS011;67169;50.268;8.694;2023-08-24T15:02:08;1.63;;;1.20;;
77978;SDS011;67169;50.268;8.694;2023-08-24T15:04:34;1.45;;;1.30;;
77978;SDS011;67169;50.268;8.694;2023-08-24T15:07:02;1.73;;;1.13;;
77978;SDS011;67169;50.268;8.694;2023-08-24T15:09:30;1.77;;;1.25;;
77978;SDS011;67169;50.268;8.694;2023-08-24T15:11:57;1.20;;;1.10;;
77978;SDS011;67169;50.268;8.694;2023-08-24T15:14:23;2.65;;;1.10;;